sensor_id;sensor_type;location;lat;lon;timestamp;P1;durP1;ratioP1;P2;durP2;ratioP2
12725;SDS011;6427;49.754;6.106;2023-05-14T00:02:06;9.18;;;7.72;;
12725;SDS011;6427;49.754;6.106;2023-05-14T00:04:33;10.03;;;6.80;;
12725;SDS011;6427;49.754;6.106;2023-05-14T00:07:02;9.53;;;7.93;;
12725;SDS011;6427;49.754;6.106;2023-05-14T00:09:30;8.87;;;6.73;;
12725;SDS011;6427;49.754;6.106;2023-05-14T00:11:57;10.63;;;6.77;;
12725;SDS011;6427;49.754;6.106;2023-05-14T00:14:25;9.80;;;6.67;;
12725;SDS011;6427;49.754;6.106;2023-05-14T00:16:53;7.40;;;6.60;;
12725;SDS011;6427;49.754;6.106;2023-05-14T00:19:20;9.17;;;7.70;;
12725;SDS011;6427;49.754;6.106;2023-05-14T00:21:48;8.90;;;7.50;;
12725;SDS011;6427;49.754;6.106;2023-05-14T00:24:18;11.70;;;8.77;;
12725;SDS011;6427;49.754;6.106;2023-05-14T00:26:45;10.57;;;8.50;;
12725;SDS011;6427;49.754;6.106;2023-05-14T00:29:13;8.60;;;7.13;;
12725;SDS011;6427;49.754;6.106;2023-05-14T00:31:42;10.33;;;8.17;;
12725;SDS011;6427;49.754;6.106;2023-05-14T00:34:09;14.47;;;9.13;;
12725;SDS011;6427;49.754;6.106;2023-05-14T00:36:37;10.07;;;8.57;;
12725;SDS011;6427;49.754;6.106;2023-05-14T00:39:06;10.53;;;8.73;;
12725;SDS011;6427;49.754;6.106;2023-05-14T00:41:34;13.17;;;9.13;;
12725;SDS011;6427;49.754;6.106;2023-05-14T00:44:01;13.93;;;9.07;;
12725;SDS011;6427;49.754;6.106;2023-05-14T00:46:29;12.77;;;9.47;;
12725;SDS011;6427;49.754;6.106;2023-05-14T00:48:57;14.27;;;9.07;;
12725;SDS011;6427;49.754;6.106;2023-05-14T00:51:24;12.47;;;9.17;;
12725;SDS011;6427;49.754;6.106;2023-05-14T00:53:52;9.63;;;8.23;;
12725;SDS011;6427;49.754;6.106;2023-05-14T00:56:20;12.73;;;8.40;;
12725;SDS011;6427;49.754;6.106;2023-05-14T00:58:49;13.60;;;9.47;;
12725;SDS011;6427;49.754;6.106;2023-05-14T01:01:17;11.20;;;8.80;;
12725;SDS011;6427;49.754;6.106;2023-05-14T01:03:44;10.77;;;8.17;;
12725;SDS011;6427;49.754;6.106;2023-05-14T01:12:24;6.87;;;6.13;;
12725;SDS011;6427;49.754;6.106;2023-05-14T01:17:11;8.20;;;6.83;;
12725;SDS011;6427;49.754;6.106;2023-05-14T01:19:39;6.70;;;6.00;;
12725;SDS011;6427;49.754;6.106;2023-05-14T01:22:06;6.30;;;5.70;;
12725;SDS011;6427;49.754;6.106;2023-05-14T01:24:34;6.40;;;5.80;;
12725;SDS011;6427;49.754;6.106;2023-05-14T01:27:04;5.90;;;5.23;;
12725;SDS011;6427;49.754;6.106;2023-05-14T01:29:42;40.87;;;4.90;;
12725;SDS011;6427;49.754;6.106;2023-05-14T01:32:10;14.83;;;4.70;;
12725;SDS011;6427;49.754;6.106;2023-05-14T01:34:39;6.10;;;4.10;;
12725;SDS011;6427;49.754;6.106;2023-05-14T01:37:06;10.17;;;4.30;;
12725;SDS011;6427;49.754;6.106;2023-05-14T01:39:34;9.13;;;4.93;;
12725;SDS011;6427;49.754;6.106;2023-05-14T01:42:01;5.40;;;4.67;;
12725;SDS011;6427;49.754;6.106;2023-05-14T01:44:29;5.10;;;4.60;;
12725;SDS011;6427;49.754;6.106;2023-05-14T01:46:57;18.10;;;5.90;;
12725;SDS011;6427;49.754;6.106;2023-05-14T01:49:24;9.50;;;5.23;;
12725;SDS011;6427;49.754;6.106;2023-05-14T01:51:52;7.10;;;6.40;;
12725;SDS011;6427;49.754;6.106;2023-05-14T01:54:19;7.00;;;6.30;;
12725;SDS011;6427;49.754;6.106;2023-05-14T01:56:47;6.80;;;5.07;;
12725;SDS011;6427;49.754;6.106;2023-05-14T01:59:14;4.90;;;4.40;;
12725;SDS011;6427;49.754;6.106;2023-05-14T02:01:42;6.43;;;5.50;;
12725;SDS011;6427;49.754;6.106;2023-05-14T02:04:10;5.20;;;4.70;;
12725;SDS011;6427;49.754;6.106;2023-05-14T02:06:38;5.40;;;3.80;;
12725;SDS011;6427;49.754;6.106;2023-05-14T02:09:05;4.20;;;3.80;;
12725;SDS011;6427;49.754;6.106;2023-05-14T02:11:33;4.33;;;3.93;;
12725;SDS011;6427;49.754;6.106;2023-05-14T02:14:01;4.40;;;3.90;;
12725;SDS011;6427;49.754;6.106;2023-05-14T02:16:28;4.30;;;3.90;;
12725;SDS011;6427;49.754;6.106;2023-05-14T02:18:56;4.73;;;3.40;;
12725;SDS011;6427;49.754;6.106;2023-05-14T02:21:24;5.47;;;4.97;;
12725;SDS011;6427;49.754;6.106;2023-05-14T02:23:52;5.57;;;5.00;;
12725;SDS011;6427;49.754;6.106;2023-05-14T02:26:19;5.83;;;4.90;;
12725;SDS011;6427;49.754;6.106;2023-05-14T02:28:47;4.87;;;4.33;;
12725;SDS011;6427;49.754;6.106;2023-05-14T02:31:14;5.90;;;5.10;;
12725;SDS011;6427;49.754;6.106;2023-05-14T02:33:42;8.68;;;5.70;;
12725;SDS011;6427;49.754;6.106;2023-05-14T02:36:10;11.77;;;4.50;;
12725;SDS011;6427;49.754;6.106;2023-05-14T02:38:37;16.47;;;4.70;;
12725;SDS011;6427;49.754;6.106;2023-05-14T02:41:05;6.00;;;4.37;;
12725;SDS011;6427;49.754;6.106;2023-05-14T02:43:34;22.33;;;5.27;;
12725;SDS011;6427;49.754;6.106;2023-05-14T02:46:02;9.83;;;5.00;;
12725;SDS011;6427;49.754;6.106;2023-05-14T02:48:29;5.67;;;3.73;;
12725;SDS011;6427;49.754;6.106;2023-05-14T02:50:57;4.37;;;3.97;;
12725;SDS011;6427;49.754;6.106;2023-05-14T02:53:25;4.07;;;3.73;;
12725;SDS011;6427;49.754;6.106;2023-05-14T02:55:52;4.63;;;4.00;;
12725;SDS011;6427;49.754;6.106;2023-05-14T02:58:20;6.03;;;4.33;;
12725;SDS011;6427;49.754;6.106;2023-05-14T03:00:49;5.93;;;4.50;;
12725;SDS011;6427;49.754;6.106;2023-05-14T03:03:17;6.45;;;5.85;;
12725;SDS011;6427;49.754;6.106;2023-05-14T03:05:44;4.97;;;4.40;;
12725;SDS011;6427;49.754;6.106;2023-05-14T03:08:11;6.12;;;5.57;;
12725;SDS011;6427;49.754;6.106;2023-05-14T03:10:39;5.57;;;5.00;;
12725;SDS011;6427;49.754;6.106;2023-05-14T03:13:07;5.83;;;4.40;;
12725;SDS011;6427;49.754;6.106;2023-05-14T03:15:35;5.27;;;4.73;;
12725;SDS011;6427;49.754;6.106;2023-05-14T03:18:02;5.87;;;4.40;;
12725;SDS011;6427;49.754;6.106;2023-05-14T03:20:31;4.83;;;4.30;;
12725;SDS011;6427;49.754;6.106;2023-05-14T03:22:59;6.10;;;4.47;;
12725;SDS011;6427;49.754;6.106;2023-05-14T03:25:26;4.80;;;4.40;;
12725;SDS011;6427;49.754;6.106;2023-05-14T03:27:57;6.45;;;4.95;;
12725;SDS011;6427;49.754;6.106;2023-05-14T03:30:25;4.23;;;3.83;;
12725;SDS011;6427;49.754;6.106;2023-05-14T03:32:52;4.63;;;4.23;;
12725;SDS011;6427;49.754;6.106;2023-05-14T03:35:20;4.60;;;3.97;;
12725;SDS011;6427;49.754;6.106;2023-05-14T03:37:48;3.97;;;3.60;;
12725;SDS011;6427;49.754;6.106;2023-05-14T03:40:16;4.63;;;3.40;;
12725;SDS011;6427;49.754;6.106;2023-05-14T03:42:43;4.27;;;3.87;;
12725;SDS011;6427;49.754;6.106;2023-05-14T03:45:11;5.30;;;4.80;;
12725;SDS011;6427;49.754;6.106;2023-05-14T03:47:39;5.00;;;4.00;;
12725;SDS011;6427;49.754;6.106;2023-05-14T03:50:07;5.23;;;3.60;;
12725;SDS011;6427;49.754;6.106;2023-05-14T03:52:34;4.77;;;3.63;;
12725;SDS011;6427;49.754;6.106;2023-05-14T03:55:02;4.80;;;4.23;;
12725;SDS011;6427;49.754;6.106;2023-05-14T03:57:29;8.47;;;4.10;;
12725;SDS011;6427;49.754;6.106;2023-05-14T03:59:57;9.53;;;5.50;;
12725;SDS011;6427;49.754;6.106;2023-05-14T04:02:24;4.67;;;4.10;;
12725;SDS011;6427;49.754;6.106;2023-05-14T04:04:52;6.37;;;4.23;;
12725;SDS011;6427;49.754;6.106;2023-05-14T04:07:20;4.50;;;3.73;;
12725;SDS011;6427;49.754;6.106;2023-05-14T04:09:51;4.50;;;4.03;;
12725;SDS011;6427;49.754;6.106;2023-05-14T04:12:19;4.73;;;4.27;;
12725;SDS011;6427;49.754;6.106;2023-05-14T04:14:47;10.07;;;4.70;;
12725;SDS011;6427;49.754;6.106;2023-05-14T04:17:14;27.50;;;5.17;;
12725;SDS011;6427;49.754;6.106;2023-05-14T04:19:43;25.60;;;5.10;;
12725;SDS011;6427;49.754;6.106;2023-05-14T04:22:10;11.37;;;3.87;;
12725;SDS011;6427;49.754;6.106;2023-05-14T04:24:40;5.13;;;3.20;;
12725;SDS011;6427;49.754;6.106;2023-05-14T04:27:08;4.03;;;3.57;;
12725;SDS011;6427;49.754;6.106;2023-05-14T04:29:36;4.27;;;3.63;;
12725;SDS011;6427;49.754;6.106;2023-05-14T04:32:04;4.00;;;3.60;;
12725;SDS011;6427;49.754;6.106;2023-05-14T04:34:31;5.57;;;4.10;;
12725;SDS011;6427;49.754;6.106;2023-05-14T04:36:59;4.50;;;4.00;;
12725;SDS011;6427;49.754;6.106;2023-05-14T04:39:26;6.60;;;4.10;;
12725;SDS011;6427;49.754;6.106;2023-05-14T04:41:54;5.27;;;3.70;;
12725;SDS011;6427;49.754;6.106;2023-05-14T04:44:21;4.73;;;3.50;;
12725;SDS011;6427;49.754;6.106;2023-05-14T04:46:51;6.32;;;4.45;;
12725;SDS011;6427;49.754;6.106;2023-05-14T04:49:18;4.50;;;4.10;;
12725;SDS011;6427;49.754;6.106;2023-05-14T04:51:46;4.93;;;3.87;;
12725;SDS011;6427;49.754;6.106;2023-05-14T04:54:14;4.00;;;3.60;;
12725;SDS011;6427;49.754;6.106;2023-05-14T04:56:42;5.77;;;4.27;;
12725;SDS011;6427;49.754;6.106;2023-05-14T04:59:09;7.20;;;6.50;;
12725;SDS011;6427;49.754;6.106;2023-05-14T05:01:38;5.33;;;4.77;;
12725;SDS011;6427;49.754;6.106;2023-05-14T05:04:05;14.07;;;5.93;;
12725;SDS011;6427;49.754;6.106;2023-05-14T05:06:33;8.03;;;5.50;;
12725;SDS011;6427;49.754;6.106;2023-05-14T05:09:00;6.27;;;4.97;;
12725;SDS011;6427;49.754;6.106;2023-05-14T05:11:29;8.00;;;7.20;;
12725;SDS011;6427;49.754;6.106;2023-05-14T05:13:56;7.10;;;6.40;;
12725;SDS011;6427;49.754;6.106;2023-05-14T05:16:24;7.83;;;6.93;;
12725;SDS011;6427;49.754;6.106;2023-05-14T05:18:51;9.57;;;6.60;;
12725;SDS011;6427;49.754;6.106;2023-05-14T05:21:19;9.00;;;6.87;;
12725;SDS011;6427;49.754;6.106;2023-05-14T05:23:47;8.90;;;6.60;;
12725;SDS011;6427;49.754;6.106;2023-05-14T05:26:14;7.40;;;6.60;;
12725;SDS011;6427;49.754;6.106;2023-05-14T05:28:42;7.63;;;6.73;;
12725;SDS011;6427;49.754;6.106;2023-05-14T05:31:10;7.03;;;6.33;;
12725;SDS011;6427;49.754;6.106;2023-05-14T05:33:38;6.97;;;6.23;;
12725;SDS011;6427;49.754;6.106;2023-05-14T05:36:05;9.68;;;8.68;;
12725;SDS011;6427;49.754;6.106;2023-05-14T05:38:33;8.07;;;7.10;;
12725;SDS011;6427;49.754;6.106;2023-05-14T05:41:00;9.20;;;7.27;;
12725;SDS011;6427;49.754;6.106;2023-05-14T05:43:28;10.57;;;9.53;;
12725;SDS011;6427;49.754;6.106;2023-05-14T05:45:57;14.13;;;12.55;;
12725;SDS011;6427;49.754;6.106;2023-05-14T05:48:25;15.00;;;12.93;;
12725;SDS011;6427;49.754;6.106;2023-05-14T05:50:54;12.57;;;10.57;;
12725;SDS011;6427;49.754;6.106;2023-05-14T05:53:21;12.23;;;10.30;;
12725;SDS011;6427;49.754;6.106;2023-05-14T05:55:51;10.80;;;8.73;;
12725;SDS011;6427;49.754;6.106;2023-05-14T05:58:18;11.63;;;9.30;;
12725;SDS011;6427;49.754;6.106;2023-05-14T06:00:46;11.10;;;9.37;;
12725;SDS011;6427;49.754;6.106;2023-05-14T06:03:14;11.67;;;9.30;;
12725;SDS011;6427;49.754;6.106;2023-05-14T06:05:42;9.37;;;8.23;;
12725;SDS011;6427;49.754;6.106;2023-05-14T06:08:10;13.03;;;8.80;;
12725;SDS011;6427;49.754;6.106;2023-05-14T06:10:37;14.03;;;9.83;;
12725;SDS011;6427;49.754;6.106;2023-05-14T06:13:05;14.23;;;12.15;;
12725;SDS011;6427;49.754;6.106;2023-05-14T06:15:33;11.97;;;10.10;;
12725;SDS011;6427;49.754;6.106;2023-05-14T06:18:00;11.60;;;9.60;;
12725;SDS011;6427;49.754;6.106;2023-05-14T06:20:28;12.97;;;9.40;;
12725;SDS011;6427;49.754;6.106;2023-05-14T06:22:55;12.30;;;9.97;;
12725;SDS011;6427;49.754;6.106;2023-05-14T06:25:23;11.52;;;10.20;;
12725;SDS011;6427;49.754;6.106;2023-05-14T06:27:51;12.63;;;10.82;;
12725;SDS011;6427;49.754;6.106;2023-05-14T06:30:18;17.87;;;9.30;;
12725;SDS011;6427;49.754;6.106;2023-05-14T06:32:46;10.67;;;8.67;;
12725;SDS011;6427;49.754;6.106;2023-05-14T06:35:14;10.33;;;8.60;;
12725;SDS011;6427;49.754;6.106;2023-05-14T06:37:43;9.60;;;8.60;;
12725;SDS011;6427;49.754;6.106;2023-05-14T06:40:11;9.40;;;8.27;;
12725;SDS011;6427;49.754;6.106;2023-05-14T06:42:38;11.83;;;8.57;;
12725;SDS011;6427;49.754;6.106;2023-05-14T06:45:06;10.37;;;9.00;;
12725;SDS011;6427;49.754;6.106;2023-05-14T06:47:34;9.37;;;8.37;;
12725;SDS011;6427;49.754;6.106;2023-05-14T06:50:02;10.93;;;8.07;;
12725;SDS011;6427;49.754;6.106;2023-05-14T06:52:30;10.23;;;7.10;;
12725;SDS011;6427;49.754;6.106;2023-05-14T06:54:57;11.07;;;8.17;;
12725;SDS011;6427;49.754;6.106;2023-05-14T06:57:25;8.83;;;8.03;;
12725;SDS011;6427;49.754;6.106;2023-05-14T06:59:53;9.57;;;7.90;;
12725;SDS011;6427;49.754;6.106;2023-05-14T07:02:20;8.63;;;7.73;;
12725;SDS011;6427;49.754;6.106;2023-05-14T07:04:49;10.13;;;8.27;;
12725;SDS011;6427;49.754;6.106;2023-05-14T07:07:17;10.60;;;9.20;;
12725;SDS011;6427;49.754;6.106;2023-05-14T07:09:44;10.02;;;9.05;;
12725;SDS011;6427;49.754;6.106;2023-05-14T07:12:12;9.67;;;8.67;;
12725;SDS011;6427;49.754;6.106;2023-05-14T07:14:40;11.50;;;8.70;;
12725;SDS011;6427;49.754;6.106;2023-05-14T07:17:08;9.27;;;8.10;;
12725;SDS011;6427;49.754;6.106;2023-05-14T07:19:36;9.93;;;8.50;;
12725;SDS011;6427;49.754;6.106;2023-05-14T07:22:05;9.87;;;8.53;;
12725;SDS011;6427;49.754;6.106;2023-05-14T07:24:32;9.13;;;7.67;;
12725;SDS011;6427;49.754;6.106;2023-05-14T07:27:00;9.70;;;8.63;;
12725;SDS011;6427;49.754;6.106;2023-05-14T07:29:28;10.43;;;8.27;;
12725;SDS011;6427;49.754;6.106;2023-05-14T07:31:58;11.80;;;8.27;;
12725;SDS011;6427;49.754;6.106;2023-05-14T07:34:25;10.70;;;8.33;;
12725;SDS011;6427;49.754;6.106;2023-05-14T07:36:53;10.47;;;7.90;;
12725;SDS011;6427;49.754;6.106;2023-05-14T07:39:20;10.03;;;8.57;;
12725;SDS011;6427;49.754;6.106;2023-05-14T07:41:49;10.03;;;7.40;;
12725;SDS011;6427;49.754;6.106;2023-05-14T07:44:16;10.73;;;7.93;;
12725;SDS011;6427;49.754;6.106;2023-05-14T07:46:44;9.10;;;8.00;;
12725;SDS011;6427;49.754;6.106;2023-05-14T07:49:12;10.07;;;8.43;;
12725;SDS011;6427;49.754;6.106;2023-05-14T07:51:39;9.10;;;7.47;;
12725;SDS011;6427;49.754;6.106;2023-05-14T07:54:07;8.13;;;7.20;;
12725;SDS011;6427;49.754;6.106;2023-05-14T07:56:35;7.53;;;6.73;;
12725;SDS011;6427;49.754;6.106;2023-05-14T07:59:03;9.33;;;7.20;;
12725;SDS011;6427;49.754;6.106;2023-05-14T08:01:31;8.47;;;7.40;;
12725;SDS011;6427;49.754;6.106;2023-05-14T08:03:58;9.13;;;7.50;;
12725;SDS011;6427;49.754;6.106;2023-05-14T08:06:26;8.43;;;7.03;;
12725;SDS011;6427;49.754;6.106;2023-05-14T08:08:54;11.00;;;7.40;;
12725;SDS011;6427;49.754;6.106;2023-05-14T08:11:21;7.47;;;6.57;;
12725;SDS011;6427;49.754;6.106;2023-05-14T08:13:49;8.87;;;7.00;;
12725;SDS011;6427;49.754;6.106;2023-05-14T08:16:17;10.37;;;6.80;;
12725;SDS011;6427;49.754;6.106;2023-05-14T08:18:45;7.80;;;6.97;;
12725;SDS011;6427;49.754;6.106;2023-05-14T08:21:13;7.33;;;6.10;;
12725;SDS011;6427;49.754;6.106;2023-05-14T08:23:40;7.73;;;6.90;;
12725;SDS011;6427;49.754;6.106;2023-05-14T08:26:08;9.25;;;6.93;;
12725;SDS011;6427;49.754;6.106;2023-05-14T08:28:36;7.33;;;5.80;;
12725;SDS011;6427;49.754;6.106;2023-05-14T08:31:03;7.63;;;6.57;;
12725;SDS011;6427;49.754;6.106;2023-05-14T08:33:31;7.97;;;7.05;;
12725;SDS011;6427;49.754;6.106;2023-05-14T08:35:59;6.90;;;5.90;;
12725;SDS011;6427;49.754;6.106;2023-05-14T08:38:27;6.77;;;6.07;;
12725;SDS011;6427;49.754;6.106;2023-05-14T08:40:55;7.77;;;6.87;;
12725;SDS011;6427;49.754;6.106;2023-05-14T08:43:27;6.63;;;5.93;;
12725;SDS011;6427;49.754;6.106;2023-05-14T08:45:57;7.80;;;6.23;;
12725;SDS011;6427;49.754;6.106;2023-05-14T08:48:21;6.53;;;5.73;;
12725;SDS011;6427;49.754;6.106;2023-05-14T08:50:48;6.47;;;5.87;;
12725;SDS011;6427;49.754;6.106;2023-05-14T08:53:16;9.17;;;5.83;;
12725;SDS011;6427;49.754;6.106;2023-05-14T08:55:44;8.47;;;6.77;;
12725;SDS011;6427;49.754;6.106;2023-05-14T08:58:12;4.87;;;4.47;;
12725;SDS011;6427;49.754;6.106;2023-05-14T09:00:39;5.53;;;4.83;;
12725;SDS011;6427;49.754;6.106;2023-05-14T09:03:07;5.62;;;4.82;;
12725;SDS011;6427;49.754;6.106;2023-05-14T09:05:35;5.63;;;4.87;;
12725;SDS011;6427;49.754;6.106;2023-05-14T09:08:02;5.70;;;4.00;;
12725;SDS011;6427;49.754;6.106;2023-05-14T09:10:30;5.23;;;4.30;;
12725;SDS011;6427;49.754;6.106;2023-05-14T09:12:58;4.70;;;4.30;;
12725;SDS011;6427;49.754;6.106;2023-05-14T09:15:26;5.40;;;4.17;;
12725;SDS011;6427;49.754;6.106;2023-05-14T09:17:53;4.93;;;4.43;;
12725;SDS011;6427;49.754;6.106;2023-05-14T09:20:22;5.13;;;3.73;;
12725;SDS011;6427;49.754;6.106;2023-05-14T09:22:52;4.13;;;3.73;;
12725;SDS011;6427;49.754;6.106;2023-05-14T09:25:24;6.65;;;4.30;;
12725;SDS011;6427;49.754;6.106;2023-05-14T09:27:47;6.13;;;3.53;;
12725;SDS011;6427;49.754;6.106;2023-05-14T09:30:15;5.03;;;4.00;;
12725;SDS011;6427;49.754;6.106;2023-05-14T09:32:44;4.60;;;3.80;;
12725;SDS011;6427;49.754;6.106;2023-05-14T09:35:18;3.57;;;3.20;;
12725;SDS011;6427;49.754;6.106;2023-05-14T09:37:46;4.57;;;3.67;;
12725;SDS011;6427;49.754;6.106;2023-05-14T09:40:12;4.33;;;3.93;;
12725;SDS011;6427;49.754;6.106;2023-05-14T09:42:41;4.03;;;3.63;;
12725;SDS011;6427;49.754;6.106;2023-05-14T09:45:08;4.83;;;3.90;;
12725;SDS011;6427;49.754;6.106;2023-05-14T09:47:36;4.70;;;3.80;;
12725;SDS011;6427;49.754;6.106;2023-05-14T09:50:04;4.53;;;3.33;;
12725;SDS011;6427;49.754;6.106;2023-05-14T09:52:32;4.10;;;3.70;;
12725;SDS011;6427;49.754;6.106;2023-05-14T09:54:59;4.27;;;3.87;;
12725;SDS011;6427;49.754;6.106;2023-05-14T09:57:27;4.13;;;3.47;;
12725;SDS011;6427;49.754;6.106;2023-05-14T09:59:54;4.23;;;3.83;;
12725;SDS011;6427;49.754;6.106;2023-05-14T10:02:23;6.73;;;3.57;;
12725;SDS011;6427;49.754;6.106;2023-05-14T10:04:54;7.40;;;3.70;;
12725;SDS011;6427;49.754;6.106;2023-05-14T10:07:24;5.47;;;3.63;;
12725;SDS011;6427;49.754;6.106;2023-05-14T10:09:52;3.80;;;3.40;;
12725;SDS011;6427;49.754;6.106;2023-05-14T10:12:18;4.83;;;3.70;;
12725;SDS011;6427;49.754;6.106;2023-05-14T10:14:46;10.83;;;4.47;;
12725;SDS011;6427;49.754;6.106;2023-05-14T10:17:14;5.10;;;3.63;;
12725;SDS011;6427;49.754;6.106;2023-05-14T10:19:41;7.77;;;3.73;;
12725;SDS011;6427;49.754;6.106;2023-05-14T10:22:11;5.30;;;4.03;;
12725;SDS011;6427;49.754;6.106;2023-05-14T10:24:37;5.50;;;4.20;;
12725;SDS011;6427;49.754;6.106;2023-05-14T10:27:05;6.67;;;4.27;;
12725;SDS011;6427;49.754;6.106;2023-05-14T10:29:33;3.80;;;3.47;;
12725;SDS011;6427;49.754;6.106;2023-05-14T10:32:04;9.00;;;4.20;;
12725;SDS011;6427;49.754;6.106;2023-05-14T10:34:35;4.43;;;3.80;;
12725;SDS011;6427;49.754;6.106;2023-05-14T10:37:05;4.63;;;3.63;;
12725;SDS011;6427;49.754;6.106;2023-05-14T10:39:47;4.80;;;3.70;;
12725;SDS011;6427;49.754;6.106;2023-05-14T10:42:18;5.37;;;3.77;;
12725;SDS011;6427;49.754;6.106;2023-05-14T10:45:07;3.87;;;3.47;;
12725;SDS011;6427;49.754;6.106;2023-05-14T10:47:31;5.67;;;3.40;;
12725;SDS011;6427;49.754;6.106;2023-05-14T10:50:01;5.10;;;3.57;;
12725;SDS011;6427;49.754;6.106;2023-05-14T10:52:27;5.63;;;3.83;;
12725;SDS011;6427;49.754;6.106;2023-05-14T10:54:55;4.23;;;3.70;;
12725;SDS011;6427;49.754;6.106;2023-05-14T10:57:26;4.80;;;3.67;;
12725;SDS011;6427;49.754;6.106;2023-05-14T10:59:56;4.93;;;3.93;;
12725;SDS011;6427;49.754;6.106;2023-05-14T11:07:30;5.70;;;3.67;;
12725;SDS011;6427;49.754;6.106;2023-05-14T11:10:08;4.87;;;3.60;;
12725;SDS011;6427;49.754;6.106;2023-05-14T11:12:31;5.13;;;3.73;;
12725;SDS011;6427;49.754;6.106;2023-05-14T11:14:59;4.97;;;4.00;;
12725;SDS011;6427;49.754;6.106;2023-05-14T11:17:26;9.63;;;5.27;;
12725;SDS011;6427;49.754;6.106;2023-05-14T11:19:54;12.17;;;4.83;;
12725;SDS011;6427;49.754;6.106;2023-05-14T11:22:21;10.80;;;5.80;;
12725;SDS011;6427;49.754;6.106;2023-05-14T11:24:49;4.13;;;3.67;;
12725;SDS011;6427;49.754;6.106;2023-05-14T11:27:16;4.70;;;3.07;;
12725;SDS011;6427;49.754;6.106;2023-05-14T11:29:44;3.17;;;2.87;;
12725;SDS011;6427;49.754;6.106;2023-05-14T11:32:12;5.67;;;3.10;;
12725;SDS011;6427;49.754;6.106;2023-05-14T11:34:40;5.67;;;3.60;;
12725;SDS011;6427;49.754;6.106;2023-05-14T11:37:07;5.40;;;3.53;;
12725;SDS011;6427;49.754;6.106;2023-05-14T11:39:35;4.20;;;3.20;;
12725;SDS011;6427;49.754;6.106;2023-05-14T11:42:12;3.47;;;2.87;;
12725;SDS011;6427;49.754;6.106;2023-05-14T11:44:37;4.30;;;2.60;;
12725;SDS011;6427;49.754;6.106;2023-05-14T11:47:07;6.20;;;3.22;;
12725;SDS011;6427;49.754;6.106;2023-05-14T11:49:35;3.77;;;2.70;;
12725;SDS011;6427;49.754;6.106;2023-05-14T11:52:04;4.80;;;2.73;;
12725;SDS011;6427;49.754;6.106;2023-05-14T11:54:31;3.85;;;2.92;;
12725;SDS011;6427;49.754;6.106;2023-05-14T11:57:00;4.68;;;3.05;;
12725;SDS011;6427;49.754;6.106;2023-05-14T11:59:26;5.20;;;2.50;;
12725;SDS011;6427;49.754;6.106;2023-05-14T12:01:54;3.13;;;2.50;;
12725;SDS011;6427;49.754;6.106;2023-05-14T12:04:21;4.00;;;2.70;;
12725;SDS011;6427;49.754;6.106;2023-05-14T12:06:49;3.13;;;2.50;;
12725;SDS011;6427;49.754;6.106;2023-05-14T12:09:16;3.17;;;2.63;;
12725;SDS011;6427;49.754;6.106;2023-05-14T12:11:44;9.10;;;5.20;;
12725;SDS011;6427;49.754;6.106;2023-05-14T12:14:15;10.43;;;6.63;;
12725;SDS011;6427;49.754;6.106;2023-05-14T12:16:42;9.57;;;6.93;;
12725;SDS011;6427;49.754;6.106;2023-05-14T12:19:11;10.17;;;8.23;;
12725;SDS011;6427;49.754;6.106;2023-05-14T12:21:38;11.80;;;8.30;;
12725;SDS011;6427;49.754;6.106;2023-05-14T12:24:09;11.80;;;9.53;;
12725;SDS011;6427;49.754;6.106;2023-05-14T12:26:39;15.13;;;10.97;;
12725;SDS011;6427;49.754;6.106;2023-05-14T12:29:07;14.30;;;10.83;;
12725;SDS011;6427;49.754;6.106;2023-05-14T12:31:35;10.33;;;8.17;;
12725;SDS011;6427;49.754;6.106;2023-05-14T12:34:02;11.30;;;7.37;;
12725;SDS011;6427;49.754;6.106;2023-05-14T12:36:30;9.10;;;7.23;;
12725;SDS011;6427;49.754;6.106;2023-05-14T12:38:58;10.07;;;7.97;;
12725;SDS011;6427;49.754;6.106;2023-05-14T12:41:26;9.20;;;7.33;;
12725;SDS011;6427;49.754;6.106;2023-05-14T12:43:53;7.30;;;6.60;;
12725;SDS011;6427;49.754;6.106;2023-05-14T12:46:21;9.93;;;8.50;;
12725;SDS011;6427;49.754;6.106;2023-05-14T12:48:49;11.33;;;7.67;;
12725;SDS011;6427;49.754;6.106;2023-05-14T12:51:17;12.73;;;8.40;;
12725;SDS011;6427;49.754;6.106;2023-05-14T12:53:44;10.75;;;8.93;;
12725;SDS011;6427;49.754;6.106;2023-05-14T12:56:12;11.67;;;9.33;;
12725;SDS011;6427;49.754;6.106;2023-05-14T12:58:39;10.13;;;8.33;;
12725;SDS011;6427;49.754;6.106;2023-05-14T13:01:07;10.07;;;7.43;;
12725;SDS011;6427;49.754;6.106;2023-05-14T13:03:34;9.27;;;7.83;;
12725;SDS011;6427;49.754;6.106;2023-05-14T13:06:03;9.80;;;7.40;;
12725;SDS011;6427;49.754;6.106;2023-05-14T13:08:30;12.33;;;8.13;;
12725;SDS011;6427;49.754;6.106;2023-05-14T13:10:59;13.77;;;9.53;;
12725;SDS011;6427;49.754;6.106;2023-05-14T13:13:26;10.93;;;8.63;;
12725;SDS011;6427;49.754;6.106;2023-05-14T13:15:54;11.50;;;9.27;;
12725;SDS011;6427;49.754;6.106;2023-05-14T13:18:21;9.50;;;8.50;;
12725;SDS011;6427;49.754;6.106;2023-05-14T13:20:49;9.37;;;7.70;;
12725;SDS011;6427;49.754;6.106;2023-05-14T13:23:16;11.20;;;8.67;;
12725;SDS011;6427;49.754;6.106;2023-05-14T13:25:45;10.73;;;8.60;;
12725;SDS011;6427;49.754;6.106;2023-05-14T13:28:12;10.07;;;8.27;;
12725;SDS011;6427;49.754;6.106;2023-05-14T13:30:40;8.17;;;6.60;;
12725;SDS011;6427;49.754;6.106;2023-05-14T13:33:08;4.47;;;3.97;;
12725;SDS011;6427;49.754;6.106;2023-05-14T13:35:36;5.03;;;3.40;;
12725;SDS011;6427;49.754;6.106;2023-05-14T13:38:03;3.33;;;3.00;;
12725;SDS011;6427;49.754;6.106;2023-05-14T13:40:31;3.17;;;2.70;;
12725;SDS011;6427;49.754;6.106;2023-05-14T13:42:58;4.93;;;2.53;;
12725;SDS011;6427;49.754;6.106;2023-05-14T13:45:26;3.13;;;2.37;;
12725;SDS011;6427;49.754;6.106;2023-05-14T13:47:53;3.07;;;2.77;;
12725;SDS011;6427;49.754;6.106;2023-05-14T13:50:22;3.17;;;2.10;;
12725;SDS011;6427;49.754;6.106;2023-05-14T13:52:49;2.73;;;2.20;;
12725;SDS011;6427;49.754;6.106;2023-05-14T13:55:17;4.23;;;2.17;;
12725;SDS011;6427;49.754;6.106;2023-05-14T13:57:45;3.07;;;2.27;;
12725;SDS011;6427;49.754;6.106;2023-05-14T14:00:13;5.33;;;2.27;;
12725;SDS011;6427;49.754;6.106;2023-05-14T14:02:40;5.17;;;3.57;;
12725;SDS011;6427;49.754;6.106;2023-05-14T14:05:08;5.93;;;4.23;;
12725;SDS011;6427;49.754;6.106;2023-05-14T14:07:35;6.30;;;3.83;;
12725;SDS011;6427;49.754;6.106;2023-05-14T14:10:03;6.37;;;2.63;;
12725;SDS011;6427;49.754;6.106;2023-05-14T14:12:30;3.67;;;2.73;;
12725;SDS011;6427;49.754;6.106;2023-05-14T14:14:58;2.70;;;2.47;;
12725;SDS011;6427;49.754;6.106;2023-05-14T14:17:26;4.17;;;2.60;;
12725;SDS011;6427;49.754;6.106;2023-05-14T14:19:53;3.40;;;2.37;;
12725;SDS011;6427;49.754;6.106;2023-05-14T14:22:21;2.47;;;2.27;;
12725;SDS011;6427;49.754;6.106;2023-05-14T14:24:48;2.90;;;2.70;;
12725;SDS011;6427;49.754;6.106;2023-05-14T14:27:16;2.77;;;2.53;;
12725;SDS011;6427;49.754;6.106;2023-05-14T14:29:43;4.13;;;2.50;;
12725;SDS011;6427;49.754;6.106;2023-05-14T14:32:12;3.13;;;2.57;;
12725;SDS011;6427;49.754;6.106;2023-05-14T14:34:39;2.97;;;2.67;;
12725;SDS011;6427;49.754;6.106;2023-05-14T14:37:07;5.33;;;2.80;;
12725;SDS011;6427;49.754;6.106;2023-05-14T14:39:34;2.97;;;2.67;;
12725;SDS011;6427;49.754;6.106;2023-05-14T14:42:02;5.13;;;2.87;;
12725;SDS011;6427;49.754;6.106;2023-05-14T14:44:30;3.20;;;2.90;;
12725;SDS011;6427;49.754;6.106;2023-05-14T14:46:57;4.40;;;2.80;;
12725;SDS011;6427;49.754;6.106;2023-05-14T14:49:25;3.42;;;2.80;;
12725;SDS011;6427;49.754;6.106;2023-05-14T14:51:53;4.57;;;2.80;;
12725;SDS011;6427;49.754;6.106;2023-05-14T14:54:20;3.87;;;3.00;;
12725;SDS011;6427;49.754;6.106;2023-05-14T14:56:48;3.20;;;2.90;;
12725;SDS011;6427;49.754;6.106;2023-05-14T14:59:15;4.47;;;3.20;;
12725;SDS011;6427;49.754;6.106;2023-05-14T15:01:43;7.30;;;3.27;;
12725;SDS011;6427;49.754;6.106;2023-05-14T15:04:12;5.83;;;3.90;;
12725;SDS011;6427;49.754;6.106;2023-05-14T15:06:40;7.70;;;4.57;;
12725;SDS011;6427;49.754;6.106;2023-05-14T15:09:07;4.60;;;4.00;;
12725;SDS011;6427;49.754;6.106;2023-05-14T15:11:35;4.83;;;3.60;;
12725;SDS011;6427;49.754;6.106;2023-05-14T15:14:03;5.83;;;4.00;;
12725;SDS011;6427;49.754;6.106;2023-05-14T15:16:31;6.17;;;3.60;;